sensor_id;sensor_type;location;lat;lon;timestamp;temperature;humidity
28959;DHT22;16066;0.000;0.000;2023-05-16T05:30:35;19.60;46.70
28959;DHT22;16066;0.000;0.000;2023-05-16T05:33:00;19.60;47.10
28959;DHT22;16066;0.000;0.000;2023-05-16T05:35:26;19.50;46.60
28959;DHT22;16066;0.000;0.000;2023-05-16T05:37:51;19.60;46.90
28959;DHT22;16066;0.000;0.000;2023-05-16T05:40:17;19.60;46.60
28959;DHT22;16066;0.000;0.000;2023-05-16T05:42:43;19.60;46.40
28959;DHT22;16066;0.000;0.000;2023-05-16T05:45:08;19.60;46.70
28959;DHT22;16066;0.000;0.000;2023-05-16T05:47:34;19.60;46.20
28959;DHT22;16066;0.000;0.000;2023-05-16T05:49:59;19.60;46.40
28959;DHT22;16066;0.000;0.000;2023-05-16T05:52:25;19.50;46.80
28959;DHT22;16066;0.000;0.000;2023-05-16T05:54:52;19.60;46.60
28959;DHT22;16066;0.000;0.000;2023-05-16T05:57:18;19.50;47.10
28959;DHT22;16066;0.000;0.000;2023-05-16T05:59:43;19.50;46.90
28959;DHT22;16066;0.000;0.000;2023-05-16T06:02:09;19.50;46.40
28959;DHT22;16066;0.000;0.000;2023-05-16T06:04:35;19.50;46.20
28959;DHT22;16066;0.000;0.000;2023-05-16T06:07:00;19.50;46.60
28959;DHT22;16066;0.000;0.000;2023-05-16T06:09:26;19.50;46.40
28959;DHT22;16066;0.000;0.000;2023-05-16T06:11:51;19.50;46.60
28959;DHT22;16066;0.000;0.000;2023-05-16T06:14:17;19.50;46.60
28959;DHT22;16066;0.000;0.000;2023-05-16T06:16:42;19.50;46.20
28959;DHT22;16066;0.000;0.000;2023-05-16T06:19:08;19.60;46.60
28959;DHT22;16066;0.000;0.000;2023-05-16T06:21:34;19.50;46.60
28959;DHT22;16066;0.000;0.000;2023-05-16T06:23:59;19.50;46.50
28959;DHT22;16066;0.000;0.000;2023-05-16T06:26:25;19.50;46.00
28959;DHT22;16066;0.000;0.000;2023-05-16T06:28:51;19.50;46.20
28959;DHT22;16066;0.000;0.000;2023-05-16T06:31:16;19.50;46.60
28959;DHT22;16066;0.000;0.000;2023-05-16T06:33:42;19.50;46.60
28959;DHT22;16066;0.000;0.000;2023-05-16T06:36:07;19.50;46.30
28959;DHT22;16066;0.000;0.000;2023-05-16T06:38:33;19.50;46.20
28959;DHT22;16066;0.000;0.000;2023-05-16T06:40:58;19.60;46.50
28959;DHT22;16066;0.000;0.000;2023-05-16T06:43:24;19.50;46.10
28959;DHT22;16066;0.000;0.000;2023-05-16T06:45:49;19.50;46.50
28959;DHT22;16066;0.000;0.000;2023-05-16T06:48:16;19.60;46.40
28959;DHT22;16066;0.000;0.000;2023-05-16T06:50:45;19.60;46.30
28959;DHT22;16066;0.000;0.000;2023-05-16T06:53:11;19.50;46.30
28959;DHT22;16066;0.000;0.000;2023-05-16T06:55:37;19.60;46.20
28959;DHT22;16066;0.000;0.000;2023-05-16T06:58:02;19.60;46.20
28959;DHT22;16066;0.000;0.000;2023-05-16T07:00:28;19.60;46.10
28959;DHT22;16066;0.000;0.000;2023-05-16T07:02:53;19.60;46.50
28959;DHT22;16066;0.000;0.000;2023-05-16T07:05:18;19.60;46.10
28959;DHT22;16066;0.000;0.000;2023-05-16T07:07:44;19.60;46.20
28959;DHT22;16066;0.000;0.000;2023-05-16T07:10:10;19.60;46.00
28959;DHT22;16066;0.000;0.000;2023-05-16T07:12:35;19.60;45.90
28959;DHT22;16066;0.000;0.000;2023-05-16T07:15:04;19.60;46.00
28959;DHT22;16066;0.000;0.000;2023-05-16T07:17:30;19.60;46.50
28959;DHT22;16066;0.000;0.000;2023-05-16T07:19:56;19.60;45.60
28959;DHT22;16066;0.000;0.000;2023-05-16T07:22:21;19.60;45.70
28959;DHT22;16066;0.000;0.000;2023-05-16T07:24:47;19.60;45.60
28959;DHT22;16066;0.000;0.000;2023-05-16T07:27:12;19.60;45.60
28959;DHT22;16066;0.000;0.000;2023-05-16T07:29:38;19.60;45.20
28959;DHT22;16066;0.000;0.000;2023-05-16T07:32:04;19.60;45.40
28959;DHT22;16066;0.000;0.000;2023-05-16T07:34:30;19.60;45.30
28959;DHT22;16066;0.000;0.000;2023-05-16T07:36:56;19.60;45.70
28959;DHT22;16066;0.000;0.000;2023-05-16T07:39:21;19.60;45.70
28959;DHT22;16066;0.000;0.000;2023-05-16T07:41:47;19.60;44.90
28959;DHT22;16066;0.000;0.000;2023-05-16T07:44:12;19.60;45.20
28959;DHT22;16066;0.000;0.000;2023-05-16T07:46:38;19.60;45.60
28959;DHT22;16066;0.000;0.000;2023-05-16T07:49:03;19.60;45.20
28959;DHT22;16066;0.000;0.000;2023-05-16T07:51:29;19.60;44.90
28959;DHT22;16066;0.000;0.000;2023-05-16T07:53:54;19.50;44.80
28959;DHT22;16066;0.000;0.000;2023-05-16T07:56:20;19.50;45.60
28959;DHT22;16066;0.000;0.000;2023-05-16T07:58:47;19.50;45.10
28959;DHT22;16066;0.000;0.000;2023-05-16T08:01:13;19.50;44.90
28959;DHT22;16066;0.000;0.000;2023-05-16T08:03:38;19.50;44.80
28959;DHT22;16066;0.000;0.000;2023-05-16T08:06:04;19.60;45.00
28959;DHT22;16066;0.000;0.000;2023-05-16T08:08:30;19.60;45.10
28959;DHT22;16066;0.000;0.000;2023-05-16T08:10:55;19.60;45.00
28959;DHT22;16066;0.000;0.000;2023-05-16T08:13:21;19.60;45.00
28959;DHT22;16066;0.000;0.000;2023-05-16T08:15:46;19.60;44.30
28959;DHT22;16066;0.000;0.000;2023-05-16T08:18:13;19.60;44.90
28959;DHT22;16066;0.000;0.000;2023-05-16T08:20:39;19.60;45.30
28959;DHT22;16066;0.000;0.000;2023-05-16T08:23:06;19.60;44.70
28959;DHT22;16066;0.000;0.000;2023-05-16T08:25:32;19.60;44.70
28959;DHT22;16066;0.000;0.000;2023-05-16T08:27:57;19.60;44.90
28959;DHT22;16066;0.000;0.000;2023-05-16T08:30:23;19.70;45.00
28959;DHT22;16066;0.000;0.000;2023-05-16T08:32:48;19.70;44.70
28959;DHT22;16066;0.000;0.000;2023-05-16T08:35:14;19.70;44.80
28959;DHT22;16066;0.000;0.000;2023-05-16T08:37:39;19.70;43.50
28959;DHT22;16066;0.000;0.000;2023-05-16T08:40:06;19.80;44.60
28959;DHT22;16066;0.000;0.000;2023-05-16T08:42:33;19.70;43.70
28959;DHT22;16066;0.000;0.000;2023-05-16T08:44:59;19.80;44.20
28959;DHT22;16066;0.000;0.000;2023-05-16T08:47:26;19.80;44.50
28959;DHT22;16066;0.000;0.000;2023-05-16T08:49:54;19.80;44.10
28959;DHT22;16066;0.000;0.000;2023-05-16T08:52:25;19.80;43.50
28959;DHT22;16066;0.000;0.000;2023-05-16T08:54:51;19.90;43.00
28959;DHT22;16066;0.000;0.000;2023-05-16T08:57:18;19.90;43.30
28959;DHT22;16066;0.000;0.000;2023-05-16T08:59:44;19.90;43.20
28959;DHT22;16066;0.000;0.000;2023-05-16T09:02:10;19.90;44.00
28959;DHT22;16066;0.000;0.000;2023-05-16T09:04:36;19.90;43.40
28959;DHT22;16066;0.000;0.000;2023-05-16T09:07:02;19.90;43.80
28959;DHT22;16066;0.000;0.000;2023-05-16T09:09:28;19.90;43.60
28959;DHT22;16066;0.000;0.000;2023-05-16T09:11:55;20.00;43.10
28959;DHT22;16066;0.000;0.000;2023-05-16T09:14:20;20.00;42.90
28959;DHT22;16066;0.000;0.000;2023-05-16T09:17:03;19.90;43.00
28959;DHT22;16066;0.000;0.000;2023-05-16T09:19:40;19.90;42.70
28959;DHT22;16066;0.000;0.000;2023-05-16T09:22:10;19.90;43.20
28959;DHT22;16066;0.000;0.000;2023-05-16T09:24:40;19.90;42.50
28959;DHT22;16066;0.000;0.000;2023-05-16T09:27:07;19.90;43.40
28959;DHT22;16066;0.000;0.000;2023-05-16T09:29:33;20.00;42.80
28959;DHT22;16066;0.000;0.000;2023-05-16T09:32:15;19.90;42.30
28959;DHT22;16066;0.000;0.000;2023-05-16T09:34:45;20.00;43.10
28959;DHT22;16066;0.000;0.000;2023-05-16T09:37:13;20.00;42.60
28959;DHT22;16066;0.000;0.000;2023-05-16T09:39:45;20.00;40.70
28959;DHT22;16066;0.000;0.000;2023-05-16T09:42:15;20.00;41.60
28959;DHT22;16066;0.000;0.000;2023-05-16T09:44:48;20.00;42.10
28959;DHT22;16066;0.000;0.000;2023-05-16T09:47:15;20.00;41.80
28959;DHT22;16066;0.000;0.000;2023-05-16T09:49:42;20.00;41.70
28959;DHT22;16066;0.000;0.000;2023-05-16T09:52:08;20.00;41.20
28959;DHT22;16066;0.000;0.000;2023-05-16T09:54:34;20.00;40.40
28959;DHT22;16066;0.000;0.000;2023-05-16T09:57:00;20.00;39.80
28959;DHT22;16066;0.000;0.000;2023-05-16T09:59:36;20.00;40.30
28959;DHT22;16066;0.000;0.000;2023-05-16T10:02:02;20.00;41.10
28959;DHT22;16066;0.000;0.000;2023-05-16T10:04:29;20.00;39.60
28959;DHT22;16066;0.000;0.000;2023-05-16T10:06:55;20.00;39.30
28959;DHT22;16066;0.000;0.000;2023-05-16T10:09:22;20.00;40.30
28959;DHT22;16066;0.000;0.000;2023-05-16T10:11:51;20.00;41.00
28959;DHT22;16066;0.000;0.000;2023-05-16T10:14:17;20.00;40.30
28959;DHT22;16066;0.000;0.000;2023-05-16T10:16:46;20.00;38.40
28959;DHT22;16066;0.000;0.000;2023-05-16T10:19:13;20.00;38.80
28959;DHT22;16066;0.000;0.000;2023-05-16T10:21:41;20.00;37.50
28959;DHT22;16066;0.000;0.000;2023-05-16T10:24:10;20.00;39.10
28959;DHT22;16066;0.000;0.000;2023-05-16T10:26:36;20.00;38.60
28959;DHT22;16066;0.000;0.000;2023-05-16T10:29:02;20.00;39.10
28959;DHT22;16066;0.000;0.000;2023-05-16T10:31:28;20.00;38.20
28959;DHT22;16066;0.000;0.000;2023-05-16T10:33:55;20.10;39.30
28959;DHT22;16066;0.000;0.000;2023-05-16T10:36:21;20.10;38.80
28959;DHT22;16066;0.000;0.000;2023-05-16T10:38:47;20.10;38.60
28959;DHT22;16066;0.000;0.000;2023-05-16T10:41:14;20.10;38.40
28959;DHT22;16066;0.000;0.000;2023-05-16T10:43:43;20.10;38.10
28959;DHT22;16066;0.000;0.000;2023-05-16T10:46:09;20.10;38.00
28959;DHT22;16066;0.000;0.000;2023-05-16T10:48:37;20.00;37.90
28959;DHT22;16066;0.000;0.000;2023-05-16T10:51:33;20.00;37.20
28959;DHT22;16066;0.000;0.000;2023-05-16T10:53:51;20.00;38.50
28959;DHT22;16066;0.000;0.000;2023-05-16T10:56:25;20.00;37.40
28959;DHT22;16066;0.000;0.000;2023-05-16T10:58:52;20.00;39.10
28959;DHT22;16066;0.000;0.000;2023-05-16T11:01:27;20.00;38.70
28959;DHT22;16066;0.000;0.000;2023-05-16T11:17:14;19.90;37.70
28959;DHT22;16066;0.000;0.000;2023-05-16T11:19:51;19.80;38.30
28959;DHT22;16066;0.000;0.000;2023-05-16T11:25:04;19.80;38.30
28959;DHT22;16066;0.000;0.000;2023-05-16T11:27:35;19.80;38.50
28959;DHT22;16066;0.000;0.000;2023-05-16T11:32:33;19.90;38.50
28959;DHT22;16066;0.000;0.000;2023-05-16T11:34:59;19.90;38.30
28959;DHT22;16066;0.000;0.000;2023-05-16T11:37:24;19.80;38.70
28959;DHT22;16066;0.000;0.000;2023-05-16T11:39:50;19.80;37.90
28959;DHT22;16066;0.000;0.000;2023-05-16T11:42:16;19.80;38.80
28959;DHT22;16066;0.000;0.000;2023-05-16T11:44:43;19.80;37.80
28959;DHT22;16066;0.000;0.000;2023-05-16T11:47:08;19.80;38.50
28959;DHT22;16066;0.000;0.000;2023-05-16T11:49:34;19.80;39.40
28959;DHT22;16066;0.000;0.000;2023-05-16T11:52:00;19.90;39.10
28959;DHT22;16066;0.000;0.000;2023-05-16T11:54:26;19.80;39.20
28959;DHT22;16066;0.000;0.000;2023-05-16T11:56:51;19.90;38.90
28959;DHT22;16066;0.000;0.000;2023-05-16T11:59:18;19.90;39.20
28959;DHT22;16066;0.000;0.000;2023-05-16T12:01:44;20.00;39.20
28959;DHT22;16066;0.000;0.000;2023-05-16T12:04:13;20.00;38.80
28959;DHT22;16066;0.000;0.000;2023-05-16T12:06:40;20.10;38.50
28959;DHT22;16066;0.000;0.000;2023-05-16T12:09:12;20.10;38.30
28959;DHT22;16066;0.000;0.000;2023-05-16T12:11:39;20.10;38.50
28959;DHT22;16066;0.000;0.000;2023-05-16T12:14:05;20.10;37.90
28959;DHT22;16066;0.000;0.000;2023-05-16T12:16:31;20.10;38.90
28959;DHT22;16066;0.000;0.000;2023-05-16T12:18:58;20.10;37.90
28959;DHT22;16066;0.000;0.000;2023-05-16T12:21:24;20.10;38.70
28959;DHT22;16066;0.000;0.000;2023-05-16T12:23:52;20.00;38.90
28959;DHT22;16066;0.000;0.000;2023-05-16T12:26:24;19.90;39.30
28959;DHT22;16066;0.000;0.000;2023-05-16T12:28:52;19.90;40.00
28959;DHT22;16066;0.000;0.000;2023-05-16T12:31:20;19.90;39.60
28959;DHT22;16066;0.000;0.000;2023-05-16T12:33:46;19.90;39.70
28959;DHT22;16066;0.000;0.000;2023-05-16T12:36:12;19.90;39.10
28959;DHT22;16066;0.000;0.000;2023-05-16T12:38:40;19.90;39.60
28959;DHT22;16066;0.000;0.000;2023-05-16T12:41:05;19.90;39.70
28959;DHT22;16066;0.000;0.000;2023-05-16T12:43:31;19.90;38.80
28959;DHT22;16066;0.000;0.000;2023-05-16T12:45:57;20.00;37.90
28959;DHT22;16066;0.000;0.000;2023-05-16T12:48:28;20.10;38.50
28959;DHT22;16066;0.000;0.000;2023-05-16T12:50:55;20.10;38.30
28959;DHT22;16066;0.000;0.000;2023-05-16T12:53:21;20.10;38.60
28959;DHT22;16066;0.000;0.000;2023-05-16T12:55:46;20.10;38.50
28959;DHT22;16066;0.000;0.000;2023-05-16T12:58:12;20.10;37.40
28959;DHT22;16066;0.000;0.000;2023-05-16T13:00:38;20.20;37.80
28959;DHT22;16066;0.000;0.000;2023-05-16T13:03:05;20.20;38.30
28959;DHT22;16066;0.000;0.000;2023-05-16T13:05:31;20.20;37.80
28959;DHT22;16066;0.000;0.000;2023-05-16T13:07:57;20.30;38.30
28959;DHT22;16066;0.000;0.000;2023-05-16T13:10:22;20.30;38.10
28959;DHT22;16066;0.000;0.000;2023-05-16T13:12:50;20.30;37.10
28959;DHT22;16066;0.000;0.000;2023-05-16T13:15:15;20.40;37.90
28959;DHT22;16066;0.000;0.000;2023-05-16T13:17:41;20.30;38.30
28959;DHT22;16066;0.000;0.000;2023-05-16T13:20:10;20.40;38.00
28959;DHT22;16066;0.000;0.000;2023-05-16T13:22:39;20.40;37.90
28959;DHT22;16066;0.000;0.000;2023-05-16T13:25:05;20.40;39.40
28959;DHT22;16066;0.000;0.000;2023-05-16T13:27:32;20.40;38.10
28959;DHT22;16066;0.000;0.000;2023-05-16T13:29:57;20.30;37.90
28959;DHT22;16066;0.000;0.000;2023-05-16T13:32:24;20.30;38.30
28959;DHT22;16066;0.000;0.000;2023-05-16T13:34:49;20.30;39.30
28959;DHT22;16066;0.000;0.000;2023-05-16T13:37:15;20.30;39.40
28959;DHT22;16066;0.000;0.000;2023-05-16T13:39:41;20.30;39.50
28959;DHT22;16066;0.000;0.000;2023-05-16T13:42:06;20.30;39.20
28959;DHT22;16066;0.000;0.000;2023-05-16T13:44:32;20.30;38.10
28959;DHT22;16066;0.000;0.000;2023-05-16T13:46:58;20.30;37.70
28959;DHT22;16066;0.000;0.000;2023-05-16T13:49:23;20.40;37.40
28959;DHT22;16066;0.000;0.000;2023-05-16T13:51:49;20.40;37.30
28959;DHT22;16066;0.000;0.000;2023-05-16T13:54:16;20.40;37.20
28959;DHT22;16066;0.000;0.000;2023-05-16T13:56:42;20.50;37.90
28959;DHT22;16066;0.000;0.000;2023-05-16T13:59:08;20.50;38.30
28959;DHT22;16066;0.000;0.000;2023-05-16T14:01:34;20.50;37.30
28959;DHT22;16066;0.000;0.000;2023-05-16T14:04:00;20.60;38.00
28959;DHT22;16066;0.000;0.000;2023-05-16T14:06:26;20.60;37.90
28959;DHT22;16066;0.000;0.000;2023-05-16T14:08:52;20.70;35.80
28959;DHT22;16066;0.000;0.000;2023-05-16T14:11:18;20.70;35.20
28959;DHT22;16066;0.000;0.000;2023-05-16T14:13:44;20.70;35.90
28959;DHT22;16066;0.000;0.000;2023-05-16T14:16:10;20.80;35.50
28959;DHT22;16066;0.000;0.000;2023-05-16T14:18:35;20.80;36.90
28959;DHT22;16066;0.000;0.000;2023-05-16T14:21:01;20.80;35.40
28959;DHT22;16066;0.000;0.000;2023-05-16T14:23:26;20.80;36.00
28959;DHT22;16066;0.000;0.000;2023-05-16T14:25:52;20.90;36.50
28959;DHT22;16066;0.000;0.000;2023-05-16T14:28:18;20.90;36.60
28959;DHT22;16066;0.000;0.000;2023-05-16T14:30:44;21.00;36.30
28959;DHT22;16066;0.000;0.000;2023-05-16T14:33:09;21.00;35.20
28959;DHT22;16066;0.000;0.000;2023-05-16T14:35:35;21.00;35.90
28959;DHT22;16066;0.000;0.000;2023-05-16T14:38:03;21.00;35.60
28959;DHT22;16066;0.000;0.000;2023-05-16T14:40:29;21.00;33.80
28959;DHT22;16066;0.000;0.000;2023-05-16T14:42:54;21.00;35.10
28959;DHT22;16066;0.000;0.000;2023-05-16T14:45:20;20.90;34.50
28959;DHT22;16066;0.000;0.000;2023-05-16T14:47:46;20.90;35.00
28959;DHT22;16066;0.000;0.000;2023-05-16T14:50:12;20.90;34.70
28959;DHT22;16066;0.000;0.000;2023-05-16T14:52:39;20.80;35.20
28959;DHT22;16066;0.000;0.000;2023-05-16T14:55:05;20.80;35.00
28959;DHT22;16066;0.000;0.000;2023-05-16T14:57:30;20.80;35.90
28959;DHT22;16066;0.000;0.000;2023-05-16T14:59:57;20.80;35.40
28959;DHT22;16066;0.000;0.000;2023-05-16T15:02:23;20.70;35.50
28959;DHT22;16066;0.000;0.000;2023-05-16T15:04:48;20.70;36.40
28959;DHT22;16066;0.000;0.000;2023-05-16T15:07:14;20.70;36.60
28959;DHT22;16066;0.000;0.000;2023-05-16T15:09:39;20.70;36.20
28959;DHT22;16066;0.000;0.000;2023-05-16T15:12:06;20.60;36.20
28959;DHT22;16066;0.000;0.000;2023-05-16T15:14:32;20.60;36.40
28959;DHT22;16066;0.000;0.000;2023-05-16T15:16:57;20.50;36.60
28959;DHT22;16066;0.000;0.000;2023-05-16T15:19:23;20.50;36.70
28959;DHT22;16066;0.000;0.000;2023-05-16T15:21:49;20.50;36.40
28959;DHT22;16066;0.000;0.000;2023-05-16T15:24:15;20.40;35.80
28959;DHT22;16066;0.000;0.000;2023-05-16T15:26:41;20.40;35.70
28959;DHT22;16066;0.000;0.000;2023-05-16T15:29:07;20.40;35.90
28959;DHT22;16066;0.000;0.000;2023-05-16T15:31:32;20.30;36.80
28959;DHT22;16066;0.000;0.000;2023-05-16T15:33:58;20.30;37.60
28959;DHT22;16066;0.000;0.000;2023-05-16T15:36:23;20.30;37.00
28959;DHT22;16066;0.000;0.000;2023-05-16T15:38:49;20.30;37.40
28959;DHT22;16066;0.000;0.000;2023-05-16T15:41:15;20.20;37.30
28959;DHT22;16066;0.000;0.000;2023-05-16T15:43:41;20.20;37.40
28959;DHT22;16066;0.000;0.000;2023-05-16T15:46:10;20.20;37.30
28959;DHT22;16066;0.000;0.000;2023-05-16T15:48:37;20.10;37.20
28959;DHT22;16066;0.000;0.000;2023-05-16T15:51:02;20.10;37.40
28959;DHT22;16066;0.000;0.000;2023-05-16T15:53:28;20.10;37.60
28959;DHT22;16066;0.000;0.000;2023-05-16T15:55:54;20.10;38.40
28959;DHT22;16066;0.000;0.000;2023-05-16T15:58:20;20.10;38.20
28959;DHT22;16066;0.000;0.000;2023-05-16T16:00:46;20.10;37.80
28959;DHT22;16066;0.000;0.000;2023-05-16T16:03:12;20.10;37.90
28959;DHT22;16066;0.000;0.000;2023-05-16T16:05:37;20.10;38.00
28959;DHT22;16066;0.000;0.000;2023-05-16T16:08:03;20.10;37.70
28959;DHT22;16066;0.000;0.000;2023-05-16T16:10:30;20.10;38.30
28959;DHT22;16066;0.000;0.000;2023-05-16T16:13:00;20.10;37.50
28959;DHT22;16066;0.000;0.000;2023-05-16T16:15:26;20.00;38.30
28959;DHT22;16066;0.000;0.000;2023-05-16T16:17:52;20.00;37.40
28959;DHT22;16066;0.000;0.000;2023-05-16T16:20:17;20.00;37.20
28959;DHT22;16066;0.000;0.000;2023-05-16T16:22:43;19.90;37.30
28959;DHT22;16066;0.000;0.000;2023-05-16T16:25:08;19.90;37.60
28959;DHT22;16066;0.000;0.000;2023-05-16T16:27:34;19.90;38.60
28959;DHT22;16066;0.000;0.000;2023-05-16T16:29:59;19.90;37.50
28959;DHT22;16066;0.000;0.000;2023-05-16T16:32:25;19.80;37.10
28959;DHT22;16066;0.000;0.000;2023-05-16T16:34:51;19.70;38.10
28959;DHT22;16066;0.000;0.000;2023-05-16T16:37:17;19.70;38.70
28959;DHT22;16066;0.000;0.000;2023-05-16T16:39:43;19.70;38.40
28959;DHT22;16066;0.000;0.000;2023-05-16T16:42:08;19.70;38.40
28959;DHT22;16066;0.000;0.000;2023-05-16T16:44:34;19.70;38.40
28959;DHT22;16066;0.000;0.000;2023-05-16T16:46:59;19.70;38.80
28959;DHT22;16066;0.000;0.000;2023-05-16T16:49:25;19.60;38.90
28959;DHT22;16066;0.000;0.000;2023-05-16T16:51:51;19.60;38.30
28959;DHT22;16066;0.000;0.000;2023-05-16T16:54:16;19.60;38.40
28959;DHT22;16066;0.000;0.000;2023-05-16T16:56:42;19.60;39.10
28959;DHT22;16066;0.000;0.000;2023-05-16T16:59:08;19.60;38.10
28959;DHT22;16066;0.000;0.000;2023-05-16T17:01:33;19.50;38.30
28959;DHT22;16066;0.000;0.000;2023-05-16T17:03:59;19.50;38.60
28959;DHT22;16066;0.000;0.000;2023-05-16T17:06:26;19.50;38.70
28959;DHT22;16066;0.000;0.000;2023-05-16T17:08:54;19.50;38.90
28959;DHT22;16066;0.000;0.000;2023-05-16T17:11:20;19.50;39.40
28959;DHT22;16066;0.000;0.000;2023-05-16T17:13:48;19.50;38.50
28959;DHT22;16066;0.000;0.000;2023-05-16T17:16:14;19.40;38.60
28959;DHT22;16066;0.000;0.000;2023-05-16T17:18:40;19.40;38.50
28959;DHT22;16066;0.000;0.000;2023-05-16T17:21:05;19.40;39.30
28959;DHT22;16066;0.000;0.000;2023-05-16T17:23:32;19.40;38.90
28959;DHT22;16066;0.000;0.000;2023-05-16T17:25:58;19.40;38.90
28959;DHT22;16066;0.000;0.000;2023-05-16T17:28:23;19.30;39.00
28959;DHT22;16066;0.000;0.000;2023-05-16T17:30:50;19.40;39.40
28959;DHT22;16066;0.000;0.000;2023-05-16T17:33:17;19.40;39.40
28959;DHT22;16066;0.000;0.000;2023-05-16T17:35:43;19.30;39.10
28959;DHT22;16066;0.000;0.000;2023-05-16T17:38:08;19.30;39.20
28959;DHT22;16066;0.000;0.000;2023-05-16T17:40:34;19.20;39.00
28959;DHT22;16066;0.000;0.000;2023-05-16T17:43:00;19.20;39.30
28959;DHT22;16066;0.000;0.000;2023-05-16T17:45:25;19.20;39.40
28959;DHT22;16066;0.000;0.000;2023-05-16T17:47:51;19.20;39.60
28959;DHT22;16066;0.000;0.000;2023-05-16T17:50:16;19.20;39.10
28959;DHT22;16066;0.000;0.000;2023-05-16T17:52:44;19.10;40.10
28959;DHT22;16066;0.000;0.000;2023-05-16T17:55:10;19.10;39.60
28959;DHT22;16066;0.000;0.000;2023-05-16T17:57:36;19.10;40.10
28959;DHT22;16066;0.000;0.000;2023-05-16T18:00:02;19.10;40.00
28959;DHT22;16066;0.000;0.000;2023-05-16T18:02:29;19.10;39.80
28959;DHT22;16066;0.000;0.000;2023-05-16T18:04:55;19.10;40.00
28959;DHT22;16066;0.000;0.000;2023-05-16T18:07:20;19.10;40.40
28959;DHT22;16066;0.000;0.000;2023-05-16T18:09:46;19.10;40.00
28959;DHT22;16066;0.000;0.000;2023-05-16T18:12:12;19.10;39.70
28959;DHT22;16066;0.000;0.000;2023-05-16T18:14:37;19.00;39.90
28959;DHT22;16066;0.000;0.000;2023-05-16T18:17:03;19.00;39.80
28959;DHT22;16066;0.000;0.000;2023-05-16T18:19:29;18.90;39.80
28959;DHT22;16066;0.000;0.000;2023-05-16T18:21:55;18.90;40.10
28959;DHT22;16066;0.000;0.000;2023-05-16T18:24:21;18.90;40.40
28959;DHT22;16066;0.000;0.000;2023-05-16T18:26:46;18.90;40.40
28959;DHT22;16066;0.000;0.000;2023-05-16T18:29:13;18.90;40.30
28959;DHT22;16066;0.000;0.000;2023-05-16T18:31:39;18.90;40.20
28959;DHT22;16066;0.000;0.000;2023-05-16T18:34:07;18.80;40.80
28959;DHT22;16066;0.000;0.000;2023-05-16T18:36:33;18.80;40.60
28959;DHT22;16066;0.000;0.000;2023-05-16T18:38:58;18.80;41.00
28959;DHT22;16066;0.000;0.000;2023-05-16T18:41:23;18.70;40.50
28959;DHT22;16066;0.000;0.000;2023-05-16T18:43:50;18.70;40.80
28959;DHT22;16066;0.000;0.000;2023-05-16T18:46:15;18.70;41.30
28959;DHT22;16066;0.000;0.000;2023-05-16T18:48:41;18.60;40.70
28959;DHT22;16066;0.000;0.000;2023-05-16T18:51:06;18.60;41.10
28959;DHT22;16066;0.000;0.000;2023-05-16T18:53:32;18.60;41.40
28959;DHT22;16066;0.000;0.000;2023-05-16T18:55:57;18.60;40.70
28959;DHT22;16066;0.000;0.000;2023-05-16T18:58:23;18.60;40.80
28959;DHT22;16066;0.000;0.000;2023-05-16T19:00:49;18.70;41.50
28959;DHT22;16066;0.000;0.000;2023-05-16T19:03:14;18.60;41.20
28959;DHT22;16066;0.000;0.000;2023-05-16T19:05:41;18.70;41.60
28959;DHT22;16066;0.000;0.000;2023-05-16T19:08:06;18.70;41.70
28959;DHT22;16066;0.000;0.000;2023-05-16T19:10:32;18.70;41.60
28959;DHT22;16066;0.000;0.000;2023-05-16T19:13:03;18.70;41.20
28959;DHT22;16066;0.000;0.000;2023-05-16T19:15:33;18.70;41.40
28959;DHT22;16066;0.000;0.000;2023-05-16T19:17:59;18.70;41.40
28959;DHT22;16066;0.000;0.000;2023-05-16T19:20:24;18.70;40.90
28959;DHT22;16066;0.000;0.000;2023-05-16T19:22:50;18.60;41.00
28959;DHT22;16066;0.000;0.000;2023-05-16T19:25:15;18.60;41.00
28959;DHT22;16066;0.000;0.000;2023-05-16T19:27:41;18.60;41.30
28959;DHT22;16066;0.000;0.000;2023-05-16T19:30:07;18.60;41.40
28959;DHT22;16066;0.000;0.000;2023-05-16T19:32:33;18.60;41.50
28959;DHT22;16066;0.000;0.000;2023-05-16T19:34:58;18.60;41.40
28959;DHT22;16066;0.000;0.000;2023-05-16T19:37:24;18.60;41.30
28959;DHT22;16066;0.000;0.000;2023-05-16T19:39:49;18.60;41.60
28959;DHT22;16066;0.000;0.000;2023-05-16T19:42:15;18.60;41.60
28959;DHT22;16066;0.000;0.000;2023-05-16T19:44:40;18.60;41.70
28959;DHT22;16066;0.000;0.000;2023-05-16T19:47:07;18.60;41.20
28959;DHT22;16066;0.000;0.000;2023-05-16T19:49:32;18.60;41.20
28959;DHT22;16066;0.000;0.000;2023-05-16T19:51:58;18.50;41.80
28959;DHT22;16066;0.000;0.000;2023-05-16T19:54:23;18.50;41.90
28959;DHT22;16066;0.000;0.000;2023-05-16T19:56:49;18.50;41.70
28959;DHT22;16066;0.000;0.000;2023-05-16T19:59:14;18.50;42.10
28959;DHT22;16066;0.000;0.000;2023-05-16T20:01:40;18.50;42.10
28959;DHT22;16066;0.000;0.000;2023-05-16T20:04:05;18.50;41.70
28959;DHT22;16066;0.000;0.000;2023-05-16T20:06:31;18.50;42.00
28959;DHT22;16066;0.000;0.000;2023-05-16T20:08:57;18.50;41.90
28959;DHT22;16066;0.000;0.000;2023-05-16T20:11:23;18.50;41.80
28959;DHT22;16066;0.000;0.000;2023-05-16T20:13:48;18.40;41.80
28959;DHT22;16066;0.000;0.000;2023-05-16T20:16:14;18.40;42.00
28959;DHT22;16066;0.000;0.000;2023-05-16T20:18:39;18.40;42.70
28959;DHT22;16066;0.000;0.000;2023-05-16T20:21:05;18.40;41.90
28959;DHT22;16066;0.000;0.000;2023-05-16T20:23:30;18.40;42.20
28959;DHT22;16066;0.000;0.000;2023-05-16T20:25:56;18.40;42.30
28959;DHT22;16066;0.000;0.000;2023-05-16T20:28:21;18.40;42.20
28959;DHT22;16066;0.000;0.000;2023-05-16T20:30:46;18.40;42.40
28959;DHT22;16066;0.000;0.000;2023-05-16T20:33:12;18.40;42.30
28959;DHT22;16066;0.000;0.000;2023-05-16T20:35:37;18.40;42.10
28959;DHT22;16066;0.000;0.000;2023-05-16T20:38:03;18.40;42.20
28959;DHT22;16066;0.000;0.000;2023-05-16T20:40:28;18.30;42.60
28959;DHT22;16066;0.000;0.000;2023-05-16T20:42:54;18.30;42.70
28959;DHT22;16066;0.000;0.000;2023-05-16T20:45:20;18.30;42.60
28959;DHT22;16066;0.000;0.000;2023-05-16T20:47:46;18.30;42.40
28959;DHT22;16066;0.000;0.000;2023-05-16T20:50:12;18.30;42.30
28959;DHT22;16066;0.000;0.000;2023-05-16T20:52:37;18.20;42.30
28959;DHT22;16066;0.000;0.000;2023-05-16T20:55:03;18.20;42.60
28959;DHT22;16066;0.000;0.000;2023-05-16T20:57:28;18.20;42.70
28959;DHT22;16066;0.000;0.000;2023-05-16T20:59:54;18.10;42.60
28959;DHT22;16066;0.000;0.000;2023-05-16T21:02:19;18.10;42.70
28959;DHT22;16066;0.000;0.000;2023-05-16T21:04:45;18.10;42.90
28959;DHT22;16066;0.000;0.000;2023-05-16T21:07:10;18.10;42.90
28959;DHT22;16066;0.000;0.000;2023-05-16T21:09:36;18.10;43.00
28959;DHT22;16066;0.000;0.000;2023-05-16T21:12:03;18.20;43.10
28959;DHT22;16066;0.000;0.000;2023-05-16T21:14:28;18.10;43.10
28959;DHT22;16066;0.000;0.000;2023-05-16T21:16:54;18.10;42.90
28959;DHT22;16066;0.000;0.000;2023-05-16T21:19:19;18.10;42.70
28959;DHT22;16066;0.000;0.000;2023-05-16T21:21:45;18.10;43.10
28959;DHT22;16066;0.000;0.000;2023-05-16T21:24:10;18.10;43.00
28959;DHT22;16066;0.000;0.000;2023-05-16T21:26:36;18.00;43.30